Ammon, Virginia
Current Conditions -  °F | °C
As of 8:35 PM on Tuesday 21 Oct 2014 (Local Time) from KPTB Reporting Station
Overcast Overcast  
Wind Chill: 62°   Ceiling: 8000
Heat Index: 62°   Visibility: 10mi
Dew Point: 46°   Wind: 7mph
Humidity: 56%   Direction: 310°NW
Pressure: 29.88"   Gusts: NA
Location:  37.16°N, 77.59°W
Report Text: KPTB 220035Z AUTO 31006KT 10SM BKN080 OVC100 17/08 A2988 RMK AO2 T01660079
Loading
Personal Weather Stations






























Interactive Weather Map
Tropical Storm Tracking
New forecast layout! Learn more

10-Day Weather Forecast

Advertisements
Track Severe Weather on mobile